<?xml version="1.0" encoding="utf-8"?>
<gpx xmlns:xsi="http://www.w3.org/2001/XMLSchema-instance" xmlns:xsd="http://www.w3.org/2001/XMLSchema" version="1.1" creator="Shapelink.com" xmlns="http://www.topografix.com/GPX/1/1" xmlns:gpxtpx="http://www.garmin.com/xmlschemas/TrackPointExtension/v1">
  <metadata>
    <name>Löpning 7.51 km, 2019-07-20</name>
    <desc></desc>
    <author><name>Marian Moron</name></author> 
    <time>2019-07-20T12:10:10Z</time>
  </metadata>
  <trk>
    <name>Löpning 7.51 km, 2019-07-20</name>
    <trkseg>
      <trkpt lat="51.215420991276" lon="4.483173460297">
        <ele>0</ele>
        <time>2019-07-20T12:10:10Z</time>
      </trkpt>
      <trkpt lat="51.215352846429" lon="4.482897695787">
        <ele>0</ele>
        <time>2019-07-20T12:10:17Z</time>
      </trkpt>
      <trkpt lat="51.215223932807" lon="4.482675910713">
        <ele>0</ele>
        <time>2019-07-20T12:10:24Z</time>
      </trkpt>
      <trkpt lat="51.215045649794" lon="4.482538950467">
        <ele>0</ele>
        <time>2019-07-20T12:10:32Z</time>
      </trkpt>
      <trkpt lat="51.214858901062" lon="4.482552529145">
        <ele>0</ele>
        <time>2019-07-20T12:10:40Z</time>
      </trkpt>
      <trkpt lat="51.214697717125" lon="4.482714970367">
        <ele>3</ele>
        <time>2019-07-20T12:10:48Z</time>
      </trkpt>
      <trkpt lat="51.214591015538" lon="4.482957374915">
        <ele>4.4</ele>
        <time>2019-07-20T12:10:56Z</time>
      </trkpt>
      <trkpt lat="51.214554218997" lon="4.483243449162">
        <ele>2.8</ele>
        <time>2019-07-20T12:11:04Z</time>
      </trkpt>
      <trkpt lat="51.214558912861" lon="4.483533965816">
        <ele>0.8</ele>
        <time>2019-07-20T12:11:12Z</time>
      </trkpt>
      <trkpt lat="51.214562517078" lon="4.483845521039">
        <ele>0</ele>
        <time>2019-07-20T12:11:20Z</time>
      </trkpt>
      <trkpt lat="51.214575844299" lon="4.484149281095">
        <ele>0</ele>
        <time>2019-07-20T12:11:28Z</time>
      </trkpt>
      <trkpt lat="51.214593781565" lon="4.484461842146">
        <ele>3</ele>
        <time>2019-07-20T12:11:36Z</time>
      </trkpt>
      <trkpt lat="51.214670895045" lon="4.484723189788">
        <ele>3.2</ele>
        <time>2019-07-20T12:11:44Z</time>
      </trkpt>
      <trkpt lat="51.214823110349" lon="4.484936090048">
        <ele>4</ele>
        <time>2019-07-20T12:11:52Z</time>
      </trkpt>
      <trkpt lat="51.214888992083" lon="4.485113199595">
        <ele>5.6</ele>
        <time>2019-07-20T12:11:58Z</time>
      </trkpt>
      <trkpt lat="51.214841299072" lon="4.485075481045">
        <ele>0</ele>
        <time>2019-07-20T12:13:29Z</time>
      </trkpt>
      <trkpt lat="51.21484817223" lon="4.485032900993">
        <ele>0</ele>
        <time>2019-07-20T12:13:31Z</time>
      </trkpt>
      <trkpt lat="51.215019330628" lon="4.484953021486">
        <ele>0</ele>
        <time>2019-07-20T12:13:38Z</time>
      </trkpt>
      <trkpt lat="51.215203983885" lon="4.484874483083">
        <ele>0</ele>
        <time>2019-07-20T12:13:45Z</time>
      </trkpt>
      <trkpt lat="51.215344045434" lon="4.484691506206">
        <ele>0</ele>
        <time>2019-07-20T12:13:54Z</time>
      </trkpt>
      <trkpt lat="51.215437335981" lon="4.484431583487">
        <ele>0</ele>
        <time>2019-07-20T12:14:03Z</time>
      </trkpt>
      <trkpt lat="51.21545753636" lon="4.484126063232">
        <ele>0</ele>
        <time>2019-07-20T12:14:12Z</time>
      </trkpt>
      <trkpt lat="51.215435072868" lon="4.483828589601">
        <ele>0</ele>
        <time>2019-07-20T12:14:20Z</time>
      </trkpt>
      <trkpt lat="51.215418225249" lon="4.483541593345">
        <ele>0</ele>
        <time>2019-07-20T12:14:28Z</time>
      </trkpt>
      <trkpt lat="51.215408502245" lon="4.48322517662">
        <ele>0</ele>
        <time>2019-07-20T12:14:36Z</time>
      </trkpt>
      <trkpt lat="51.215366676564" lon="4.482905490954">
        <ele>0</ele>
        <time>2019-07-20T12:14:42Z</time>
      </trkpt>
      <trkpt lat="51.215264836479" lon="4.482660068922">
        <ele>1.2</ele>
        <time>2019-07-20T12:14:48Z</time>
      </trkpt>
      <trkpt lat="51.214929225203" lon="4.48250014227">
        <ele>1.8</ele>
        <time>2019-07-20T12:14:59Z</time>
      </trkpt>
      <trkpt lat="51.214737363512" lon="4.482590331514">
        <ele>1.4</ele>
        <time>2019-07-20T12:15:05Z</time>
      </trkpt>
      <trkpt lat="51.214604342759" lon="4.482791580933">
        <ele>0.4</ele>
        <time>2019-07-20T12:15:12Z</time>
      </trkpt>
      <trkpt lat="51.214531755505" lon="4.483064327959">
        <ele>0</ele>
        <time>2019-07-20T12:15:19Z</time>
      </trkpt>
      <trkpt lat="51.214527061641" lon="4.48338359453">
        <ele>0.8</ele>
        <time>2019-07-20T12:15:26Z</time>
      </trkpt>
      <trkpt lat="51.214550363323" lon="4.483710404811">
        <ele>2.2</ele>
        <time>2019-07-20T12:15:33Z</time>
      </trkpt>
      <trkpt lat="51.214565199286" lon="4.48399547323">
        <ele>3.6</ele>
        <time>2019-07-20T12:15:39Z</time>
      </trkpt>
      <trkpt lat="51.214582466" lon="4.484328067022">
        <ele>4.6</ele>
        <time>2019-07-20T12:15:46Z</time>
      </trkpt>
      <trkpt lat="51.214630997201" lon="4.484603244799">
        <ele>3.8</ele>
        <time>2019-07-20T12:15:52Z</time>
      </trkpt>
      <trkpt lat="51.214728813974" lon="4.484841626035">
        <ele>3</ele>
        <time>2019-07-20T12:15:58Z</time>
      </trkpt>
      <trkpt lat="51.21491019829" lon="4.484964001775">
        <ele>2</ele>
        <time>2019-07-20T12:16:05Z</time>
      </trkpt>
      <trkpt lat="51.215111112433" lon="4.484922679008">
        <ele>1.6</ele>
        <time>2019-07-20T12:16:12Z</time>
      </trkpt>
      <trkpt lat="51.215290904188" lon="4.48479343011">
        <ele>1.2</ele>
        <time>2019-07-20T12:16:19Z</time>
      </trkpt>
      <trkpt lat="51.215404981847" lon="4.48453359121">
        <ele>0</ele>
        <time>2019-07-20T12:16:26Z</time>
      </trkpt>
      <trkpt lat="51.215453261591" lon="4.484238380692">
        <ele>0.2</ele>
        <time>2019-07-20T12:16:33Z</time>
      </trkpt>
      <trkpt lat="51.215432306841" lon="4.483929591496">
        <ele>2</ele>
        <time>2019-07-20T12:16:40Z</time>
      </trkpt>
      <trkpt lat="51.215415375403" lon="4.483606804527">
        <ele>3</ele>
        <time>2019-07-20T12:16:47Z</time>
      </trkpt>
      <trkpt lat="51.215408753702" lon="4.48330899562">
        <ele>2.8</ele>
        <time>2019-07-20T12:16:53Z</time>
      </trkpt>
      <trkpt lat="51.215406742046" lon="4.483099112844">
        <ele>1.8</ele>
        <time>2019-07-20T12:16:57Z</time>
      </trkpt>
      <trkpt lat="51.215396599947" lon="4.482999284415">
        <ele>2</ele>
        <time>2019-07-20T12:16:59Z</time>
      </trkpt>
      <trkpt lat="51.215260142615" lon="4.482653782497">
        <ele>2.2</ele>
        <time>2019-07-20T12:17:09Z</time>
      </trkpt>
      <trkpt lat="51.215097366117" lon="4.482502992116">
        <ele>0</ele>
        <time>2019-07-20T12:17:17Z</time>
      </trkpt>
      <trkpt lat="51.214916819991" lon="4.482474326018">
        <ele>0</ele>
        <time>2019-07-20T12:17:25Z</time>
      </trkpt>
      <trkpt lat="51.214739375168" lon="4.482550098394">
        <ele>0</ele>
        <time>2019-07-20T12:17:33Z</time>
      </trkpt>
      <trkpt lat="51.21458749514" lon="4.482754281478">
        <ele>0</ele>
        <time>2019-07-20T12:17:41Z</time>
      </trkpt>
      <trkpt lat="51.214504933425" lon="4.483032141463">
        <ele>0</ele>
        <time>2019-07-20T12:17:49Z</time>
      </trkpt>
      <trkpt lat="51.214503005588" lon="4.4833358177">
        <ele>0</ele>
        <time>2019-07-20T12:17:56Z</time>
      </trkpt>
      <trkpt lat="51.214525301442" lon="4.483658269393">
        <ele>0</ele>
        <time>2019-07-20T12:18:04Z</time>
      </trkpt>
      <trkpt lat="51.214550363323" lon="4.483953060816">
        <ele>0</ele>
        <time>2019-07-20T12:18:11Z</time>
      </trkpt>
      <trkpt lat="51.21457576048" lon="4.48423771014">
        <ele>1.6</ele>
        <time>2019-07-20T12:18:18Z</time>
      </trkpt>
      <trkpt lat="51.214618927265" lon="4.484525293129">
        <ele>5</ele>
        <time>2019-07-20T12:18:25Z</time>
      </trkpt>
      <trkpt lat="51.21472076735" lon="4.484773900283">
        <ele>7.2</ele>
        <time>2019-07-20T12:18:32Z</time>
      </trkpt>
      <trkpt lat="51.214888237712" lon="4.484934581306">
        <ele>6.4</ele>
        <time>2019-07-20T12:18:40Z</time>
      </trkpt>
      <trkpt lat="51.215075824634" lon="4.484954027314">
        <ele>3.4</ele>
        <time>2019-07-20T12:18:49Z</time>
      </trkpt>
      <trkpt lat="51.215252850362" lon="4.484849505021">
        <ele>2</ele>
        <time>2019-07-20T12:18:57Z</time>
      </trkpt>
      <trkpt lat="51.215385703477" lon="4.484657559511">
        <ele>1</ele>
        <time>2019-07-20T12:19:04Z</time>
      </trkpt>
      <trkpt lat="51.215458290731" lon="4.484375424757">
        <ele>1.8</ele>
        <time>2019-07-20T12:19:12Z</time>
      </trkpt>
      <trkpt lat="51.215450914659" lon="4.484055403815">
        <ele>1.2</ele>
        <time>2019-07-20T12:19:20Z</time>
      </trkpt>
      <trkpt lat="51.215429624633" lon="4.483498342741">
        <ele>0.2</ele>
        <time>2019-07-20T12:19:32Z</time>
      </trkpt>
      <trkpt lat="51.215413363747" lon="4.483209334829">
        <ele>0.2</ele>
        <time>2019-07-20T12:19:38Z</time>
      </trkpt>
      <trkpt lat="51.215363994356" lon="4.482894762122">
        <ele>0</ele>
        <time>2019-07-20T12:19:45Z</time>
      </trkpt>
      <trkpt lat="51.215239104046" lon="4.482643053665">
        <ele>0</ele>
        <time>2019-07-20T12:19:52Z</time>
      </trkpt>
      <trkpt lat="51.215052522952" lon="4.482503662668">
        <ele>0</ele>
        <time>2019-07-20T12:19:59Z</time>
      </trkpt>
      <trkpt lat="51.214850267705" lon="4.482510954921">
        <ele>0</ele>
        <time>2019-07-20T12:20:06Z</time>
      </trkpt>
      <trkpt lat="51.214687407388" lon="4.482640371457">
        <ele>0</ele>
        <time>2019-07-20T12:20:12Z</time>
      </trkpt>
      <trkpt lat="51.214562265621" lon="4.482881434901">
        <ele>0</ele>
        <time>2019-07-20T12:20:19Z</time>
      </trkpt>
      <trkpt lat="51.214517757732" lon="4.483183015663">
        <ele>0</ele>
        <time>2019-07-20T12:20:25Z</time>
      </trkpt>
      <trkpt lat="51.214523122148" lon="4.48350429389">
        <ele>0</ele>
        <time>2019-07-20T12:20:31Z</time>
      </trkpt>
      <trkpt lat="51.214538544844" lon="4.483811239068">
        <ele>0</ele>
        <time>2019-07-20T12:20:37Z</time>
      </trkpt>
      <trkpt lat="51.214557655576" lon="4.484118268065">
        <ele>0</ele>
        <time>2019-07-20T12:20:43Z</time>
      </trkpt>
      <trkpt lat="51.214588836244" lon="4.484411969841">
        <ele>0</ele>
        <time>2019-07-20T12:20:49Z</time>
      </trkpt>
      <trkpt lat="51.214676427099" lon="4.484692092939">
        <ele>0</ele>
        <time>2019-07-20T12:20:56Z</time>
      </trkpt>
      <trkpt lat="51.214697130392" lon="4.484722603055">
        <ele>0</ele>
        <time>2019-07-20T12:20:57Z</time>
      </trkpt>
      <trkpt lat="51.214842137262" lon="4.48489149834">
        <ele>2.8</ele>
        <time>2019-07-20T12:21:03Z</time>
      </trkpt>
      <trkpt lat="51.215019079171" lon="4.484962073938">
        <ele>2.6</ele>
        <time>2019-07-20T12:21:10Z</time>
      </trkpt>
      <trkpt lat="51.215195853442" lon="4.484903568276">
        <ele>0.2</ele>
        <time>2019-07-20T12:21:17Z</time>
      </trkpt>
      <trkpt lat="51.215351756782" lon="4.484741881425">
        <ele>0</ele>
        <time>2019-07-20T12:21:24Z</time>
      </trkpt>
      <trkpt lat="51.215467427002" lon="4.484253468112">
        <ele>0</ele>
        <time>2019-07-20T12:21:37Z</time>
      </trkpt>
      <trkpt lat="51.215444712053" lon="4.483963873467">
        <ele>0</ele>
        <time>2019-07-20T12:21:45Z</time>
      </trkpt>
      <trkpt lat="51.215424930769" lon="4.483660783963">
        <ele>0</ele>
        <time>2019-07-20T12:21:53Z</time>
      </trkpt>
      <trkpt lat="51.21540556858" lon="4.483347971455">
        <ele>0.2</ele>
        <time>2019-07-20T12:22:01Z</time>
      </trkpt>
      <trkpt lat="51.215373968817" lon="4.483033314929">
        <ele>0.8</ele>
        <time>2019-07-20T12:22:09Z</time>
      </trkpt>
      <trkpt lat="51.215295011319" lon="4.482774984771">
        <ele>0.6</ele>
        <time>2019-07-20T12:22:16Z</time>
      </trkpt>
      <trkpt lat="51.215139443255" lon="4.482575747008">
        <ele>0</ele>
        <time>2019-07-20T12:22:24Z</time>
      </trkpt>
      <trkpt lat="51.214946827193" lon="4.482499220261">
        <ele>0</ele>
        <time>2019-07-20T12:22:32Z</time>
      </trkpt>
      <trkpt lat="51.214761168108" lon="4.4825646829">
        <ele>0</ele>
        <time>2019-07-20T12:22:39Z</time>
      </trkpt>
      <trkpt lat="51.214607444062" lon="4.482766435233">
        <ele>0</ele>
        <time>2019-07-20T12:22:47Z</time>
      </trkpt>
      <trkpt lat="51.214522032501" lon="4.483060388466">
        <ele>0</ele>
        <time>2019-07-20T12:22:55Z</time>
      </trkpt>
      <trkpt lat="51.214519937026" lon="4.483369596757">
        <ele>0</ele>
        <time>2019-07-20T12:23:02Z</time>
      </trkpt>
      <trkpt lat="51.214537455197" lon="4.48367612284">
        <ele>0</ele>
        <time>2019-07-20T12:23:09Z</time>
      </trkpt>
      <trkpt lat="51.214553380807" lon="4.48397619486">
        <ele>0</ele>
        <time>2019-07-20T12:23:16Z</time>
      </trkpt>
      <trkpt lat="51.214573916462" lon="4.484274758138">
        <ele>0</ele>
        <time>2019-07-20T12:23:23Z</time>
      </trkpt>
      <trkpt lat="51.214628063536" lon="4.484571058303">
        <ele>0</ele>
        <time>2019-07-20T12:23:30Z</time>
      </trkpt>
      <trkpt lat="51.21474758943" lon="4.484803320752">
        <ele>0.6</ele>
        <time>2019-07-20T12:23:37Z</time>
      </trkpt>
      <trkpt lat="51.214926542995" lon="4.484942460292">
        <ele>0.6</ele>
        <time>2019-07-20T12:23:45Z</time>
      </trkpt>
      <trkpt lat="51.215209599758" lon="4.484888480856">
        <ele>0</ele>
        <time>2019-07-20T12:23:56Z</time>
      </trkpt>
      <trkpt lat="51.215356450646" lon="4.484710952214">
        <ele>0</ele>
        <time>2019-07-20T12:24:02Z</time>
      </trkpt>
      <trkpt lat="51.215445634062" lon="4.484452789694">
        <ele>0</ele>
        <time>2019-07-20T12:24:08Z</time>
      </trkpt>
      <trkpt lat="51.215459380378" lon="4.484164117058">
        <ele>0</ele>
        <time>2019-07-20T12:24:14Z</time>
      </trkpt>
      <trkpt lat="51.215439179999" lon="4.483851053093">
        <ele>0</ele>
        <time>2019-07-20T12:24:20Z</time>
      </trkpt>
      <trkpt lat="51.215419901629" lon="4.483518962215">
        <ele>0.2</ele>
        <time>2019-07-20T12:24:26Z</time>
      </trkpt>
      <trkpt lat="51.21540556858" lon="4.483202210214">
        <ele>0.6</ele>
        <time>2019-07-20T12:24:32Z</time>
      </trkpt>
      <trkpt lat="51.215370951333" lon="4.482900713271">
        <ele>0</ele>
        <time>2019-07-20T12:24:38Z</time>
      </trkpt>
      <trkpt lat="51.215265507031" lon="4.482666690623">
        <ele>0</ele>
        <time>2019-07-20T12:24:44Z</time>
      </trkpt>
      <trkpt lat="51.215091079692" lon="4.482516403156">
        <ele>0</ele>
        <time>2019-07-20T12:24:50Z</time>
      </trkpt>
      <trkpt lat="51.21488840535" lon="4.482491592732">
        <ele>0</ele>
        <time>2019-07-20T12:24:56Z</time>
      </trkpt>
      <trkpt lat="51.214707188672" lon="4.482613633196">
        <ele>0</ele>
        <time>2019-07-20T12:25:02Z</time>
      </trkpt>
      <trkpt lat="51.214586070217" lon="4.482872633906">
        <ele>0</ele>
        <time>2019-07-20T12:25:08Z</time>
      </trkpt>
      <trkpt lat="51.214560505422" lon="4.483206401164">
        <ele>0</ele>
        <time>2019-07-20T12:25:14Z</time>
      </trkpt>
      <trkpt lat="51.214574167919" lon="4.483530948332">
        <ele>0</ele>
        <time>2019-07-20T12:25:20Z</time>
      </trkpt>
      <trkpt lat="51.214588165692" lon="4.483848622342">
        <ele>0</ele>
        <time>2019-07-20T12:25:26Z</time>
      </trkpt>
      <trkpt lat="51.214594284479" lon="4.484172750415">
        <ele>0</ele>
        <time>2019-07-20T12:25:32Z</time>
      </trkpt>
      <trkpt lat="51.214610293908" lon="4.48448078524">
        <ele>0</ele>
        <time>2019-07-20T12:25:38Z</time>
      </trkpt>
      <trkpt lat="51.214743985213" lon="4.484793933024">
        <ele>0</ele>
        <time>2019-07-20T12:25:47Z</time>
      </trkpt>
      <trkpt lat="51.214925872443" lon="4.484925528854">
        <ele>1.2</ele>
        <time>2019-07-20T12:25:56Z</time>
      </trkpt>
      <trkpt lat="51.215115387202" lon="4.484940532455">
        <ele>2.4</ele>
        <time>2019-07-20T12:26:04Z</time>
      </trkpt>
      <trkpt lat="51.215289395446" lon="4.484819581638">
        <ele>1</ele>
        <time>2019-07-20T12:26:12Z</time>
      </trkpt>
      <trkpt lat="51.215408418426" lon="4.484600478772">
        <ele>0.6</ele>
        <time>2019-07-20T12:26:20Z</time>
      </trkpt>
      <trkpt lat="51.215464744794" lon="4.484330413954">
        <ele>0.6</ele>
        <time>2019-07-20T12:26:28Z</time>
      </trkpt>
      <trkpt lat="51.215444376777" lon="4.484012907582">
        <ele>1</ele>
        <time>2019-07-20T12:26:36Z</time>
      </trkpt>
      <trkpt lat="51.215436665429" lon="4.483691294079">
        <ele>1</ele>
        <time>2019-07-20T12:26:44Z</time>
      </trkpt>
      <trkpt lat="51.215433312669" lon="4.483375380268">
        <ele>0</ele>
        <time>2019-07-20T12:26:52Z</time>
      </trkpt>
      <trkpt lat="51.215419398715" lon="4.483078912465">
        <ele>0</ele>
        <time>2019-07-20T12:26:59Z</time>
      </trkpt>
      <trkpt lat="51.215349493669" lon="4.48280691981">
        <ele>0</ele>
        <time>2019-07-20T12:27:07Z</time>
      </trkpt>
      <trkpt lat="51.215211611414" lon="4.482615728671">
        <ele>0</ele>
        <time>2019-07-20T12:27:14Z</time>
      </trkpt>
      <trkpt lat="51.2150434705" lon="4.48250433322">
        <ele>0</ele>
        <time>2019-07-20T12:27:21Z</time>
      </trkpt>
      <trkpt lat="51.214863511107" lon="4.482515984061">
        <ele>0</ele>
        <time>2019-07-20T12:27:28Z</time>
      </trkpt>
      <trkpt lat="51.214696040745" lon="4.482680269301">
        <ele>0</ele>
        <time>2019-07-20T12:27:37Z</time>
      </trkpt>
      <trkpt lat="51.214599397438" lon="4.482933821776">
        <ele>0.8</ele>
        <time>2019-07-20T12:27:45Z</time>
      </trkpt>
      <trkpt lat="51.214576766308" lon="4.483041445372">
        <ele>1.2</ele>
        <time>2019-07-20T12:27:48Z</time>
      </trkpt>
      <trkpt lat="51.21456654039" lon="4.483339002822">
        <ele>0.4</ele>
        <time>2019-07-20T12:27:56Z</time>
      </trkpt>
      <trkpt lat="51.21457911324" lon="4.483656676832">
        <ele>1.4</ele>
        <time>2019-07-20T12:28:04Z</time>
      </trkpt>
      <trkpt lat="51.214611215917" lon="4.484219689055">
        <ele>4</ele>
        <time>2019-07-20T12:28:16Z</time>
      </trkpt>
      <trkpt lat="51.214641055481" lon="4.48454029673">
        <ele>4.8</ele>
        <time>2019-07-20T12:28:22Z</time>
      </trkpt>
      <trkpt lat="51.214756893339" lon="4.484808098435">
        <ele>6.2</ele>
        <time>2019-07-20T12:28:29Z</time>
      </trkpt>
      <trkpt lat="51.214949760858" lon="4.484922008456">
        <ele>7.6</ele>
        <time>2019-07-20T12:28:36Z</time>
      </trkpt>
      <trkpt lat="51.215138102151" lon="4.484934748944">
        <ele>6.2</ele>
        <time>2019-07-20T12:28:42Z</time>
      </trkpt>
      <trkpt lat="51.215318480639" lon="4.484773900283">
        <ele>4.4</ele>
        <time>2019-07-20T12:28:48Z</time>
      </trkpt>
      <trkpt lat="51.215434150859" lon="4.484491849348">
        <ele>2</ele>
        <time>2019-07-20T12:28:54Z</time>
      </trkpt>
      <trkpt lat="51.215467427002" lon="4.484205607463">
        <ele>0.4</ele>
        <time>2019-07-20T12:28:59Z</time>
      </trkpt>
      <trkpt lat="51.215440018189" lon="4.483871756386">
        <ele>0</ele>
        <time>2019-07-20T12:29:05Z</time>
      </trkpt>
      <trkpt lat="51.215425936597" lon="4.48356129081">
        <ele>0</ele>
        <time>2019-07-20T12:29:11Z</time>
      </trkpt>
      <trkpt lat="51.215407831693" lon="4.483262978989">
        <ele>0</ele>
        <time>2019-07-20T12:29:17Z</time>
      </trkpt>
      <trkpt lat="51.215367095659" lon="4.482946310807">
        <ele>0.2</ele>
        <time>2019-07-20T12:29:23Z</time>
      </trkpt>
      <trkpt lat="51.215265087936" lon="4.482699296214">
        <ele>0</ele>
        <time>2019-07-20T12:29:29Z</time>
      </trkpt>
      <trkpt lat="51.215086302009" lon="4.482525371789">
        <ele>0</ele>
        <time>2019-07-20T12:29:36Z</time>
      </trkpt>
      <trkpt lat="51.214897206345" lon="4.48249427494">
        <ele>0</ele>
        <time>2019-07-20T12:29:42Z</time>
      </trkpt>
      <trkpt lat="51.214724706843" lon="4.482585386193">
        <ele>0</ele>
        <time>2019-07-20T12:29:48Z</time>
      </trkpt>
      <trkpt lat="51.214590428805" lon="4.482810943122">
        <ele>0</ele>
        <time>2019-07-20T12:29:55Z</time>
      </trkpt>
      <trkpt lat="51.214525301442" lon="4.483110176952">
        <ele>0</ele>
        <time>2019-07-20T12:30:02Z</time>
      </trkpt>
      <trkpt lat="51.214528402745" lon="4.483443441296">
        <ele>0</ele>
        <time>2019-07-20T12:30:10Z</time>
      </trkpt>
      <trkpt lat="51.214529995306" lon="4.483740495832">
        <ele>0</ele>
        <time>2019-07-20T12:30:18Z</time>
      </trkpt>
      <trkpt lat="51.214526474908" lon="4.48378089659">
        <ele>0</ele>
        <time>2019-07-20T12:30:19Z</time>
      </trkpt>
      <trkpt lat="51.214539550672" lon="4.484103515921">
        <ele>0</ele>
        <time>2019-07-20T12:30:27Z</time>
      </trkpt>
      <trkpt lat="51.214562097983" lon="4.484424291234">
        <ele>0</ele>
        <time>2019-07-20T12:30:35Z</time>
      </trkpt>
      <trkpt lat="51.214649353562" lon="4.484713466784">
        <ele>0</ele>
        <time>2019-07-20T12:30:43Z</time>
      </trkpt>
      <trkpt lat="51.214801401228" lon="4.484881020965">
        <ele>0</ele>
        <time>2019-07-20T12:30:50Z</time>
      </trkpt>
      <trkpt lat="51.214984629562" lon="4.484943130844">
        <ele>0.6</ele>
        <time>2019-07-20T12:30:57Z</time>
      </trkpt>
      <trkpt lat="51.215176491253" lon="4.484897868584">
        <ele>2.2</ele>
        <time>2019-07-20T12:31:05Z</time>
      </trkpt>
      <trkpt lat="51.215334909163" lon="4.484710281662">
        <ele>2.8</ele>
        <time>2019-07-20T12:31:13Z</time>
      </trkpt>
      <trkpt lat="51.215434150859" lon="4.484466703648">
        <ele>1.8</ele>
        <time>2019-07-20T12:31:21Z</time>
      </trkpt>
      <trkpt lat="51.215453093953" lon="4.484152382398">
        <ele>3</ele>
        <time>2019-07-20T12:31:30Z</time>
      </trkpt>
      <trkpt lat="51.21542484695" lon="4.4838303498">
        <ele>4.2</ele>
        <time>2019-07-20T12:31:39Z</time>
      </trkpt>
      <trkpt lat="51.215406658227" lon="4.483528433762">
        <ele>5.4</ele>
        <time>2019-07-20T12:31:47Z</time>
      </trkpt>
      <trkpt lat="51.215400874716" lon="4.483210256838">
        <ele>3.4</ele>
        <time>2019-07-20T12:31:55Z</time>
      </trkpt>
      <trkpt lat="51.215351840601" lon="4.482917057976">
        <ele>1.4</ele>
        <time>2019-07-20T12:32:03Z</time>
      </trkpt>
      <trkpt lat="51.21523793058" lon="4.482682197138">
        <ele>0</ele>
        <time>2019-07-20T12:32:11Z</time>
      </trkpt>
      <trkpt lat="51.215070208761" lon="4.482542387046">
        <ele>0</ele>
        <time>2019-07-20T12:32:19Z</time>
      </trkpt>
      <trkpt lat="51.214884801133" lon="4.482514978233">
        <ele>0</ele>
        <time>2019-07-20T12:32:27Z</time>
      </trkpt>
      <trkpt lat="51.214704338826" lon="4.482608184961">
        <ele>0</ele>
        <time>2019-07-20T12:32:35Z</time>
      </trkpt>
      <trkpt lat="51.214541646147" lon="4.482887721326">
        <ele>0</ele>
        <time>2019-07-20T12:32:42Z</time>
      </trkpt>
      <trkpt lat="51.21448523596" lon="4.483182009835">
        <ele>0</ele>
        <time>2019-07-20T12:32:47Z</time>
      </trkpt>
      <trkpt lat="51.214483308123" lon="4.483511250867">
        <ele>0</ele>
        <time>2019-07-20T12:32:53Z</time>
      </trkpt>
      <trkpt lat="51.21449613243" lon="4.483812077258">
        <ele>0</ele>
        <time>2019-07-20T12:32:59Z</time>
      </trkpt>
      <trkpt lat="51.21451457261" lon="4.484150203104">
        <ele>0</ele>
        <time>2019-07-20T12:33:05Z</time>
      </trkpt>
      <trkpt lat="51.214555895377" lon="4.484480449964">
        <ele>0</ele>
        <time>2019-07-20T12:33:11Z</time>
      </trkpt>
      <trkpt lat="51.214678606393" lon="4.484752526438">
        <ele>0</ele>
        <time>2019-07-20T12:33:17Z</time>
      </trkpt>
      <trkpt lat="51.214851273533" lon="4.484905915208">
        <ele>0</ele>
        <time>2019-07-20T12:33:22Z</time>
      </trkpt>
      <trkpt lat="51.215038022265" lon="4.484944555767">
        <ele>0</ele>
        <time>2019-07-20T12:33:27Z</time>
      </trkpt>
      <trkpt lat="51.215241870073" lon="4.484861574957">
        <ele>0.4</ele>
        <time>2019-07-20T12:33:33Z</time>
      </trkpt>
      <trkpt lat="51.21538377564" lon="4.484651105448">
        <ele>1.2</ele>
        <time>2019-07-20T12:33:39Z</time>
      </trkpt>
      <trkpt lat="51.215455273247" lon="4.484353967093">
        <ele>1.8</ele>
        <time>2019-07-20T12:33:45Z</time>
      </trkpt>
      <trkpt lat="51.215444879691" lon="4.48403905911">
        <ele>2.2</ele>
        <time>2019-07-20T12:33:51Z</time>
      </trkpt>
      <trkpt lat="51.215419063439" lon="4.483721217462">
        <ele>3.2</ele>
        <time>2019-07-20T12:33:57Z</time>
      </trkpt>
      <trkpt lat="51.215391654626" lon="4.483389964774">
        <ele>4.4</ele>
        <time>2019-07-20T12:34:03Z</time>
      </trkpt>
      <trkpt lat="51.215375729016" lon="4.48310280088">
        <ele>5.2</ele>
        <time>2019-07-20T12:34:08Z</time>
      </trkpt>
      <trkpt lat="51.215306326884" lon="4.482819073565">
        <ele>5.6</ele>
        <time>2019-07-20T12:34:13Z</time>
      </trkpt>
      <trkpt lat="51.215162074385" lon="4.48259401955">
        <ele>6.8</ele>
        <time>2019-07-20T12:34:19Z</time>
      </trkpt>
      <trkpt lat="51.214951185781" lon="4.482523360133">
        <ele>8.6</ele>
        <time>2019-07-20T12:34:27Z</time>
      </trkpt>
      <trkpt lat="51.214758150624" lon="4.482610867169">
        <ele>7</ele>
        <time>2019-07-20T12:34:36Z</time>
      </trkpt>
      <trkpt lat="51.214610629184" lon="4.482822342506">
        <ele>3.2</ele>
        <time>2019-07-20T12:34:44Z</time>
      </trkpt>
      <trkpt lat="51.214542149061" lon="4.483113864988">
        <ele>0</ele>
        <time>2019-07-20T12:34:52Z</time>
      </trkpt>
      <trkpt lat="51.214535778817" lon="4.483431287541">
        <ele>0</ele>
        <time>2019-07-20T12:35:00Z</time>
      </trkpt>
      <trkpt lat="51.214546088554" lon="4.483731024285">
        <ele>0</ele>
        <time>2019-07-20T12:35:08Z</time>
      </trkpt>
      <trkpt lat="51.214552626436" lon="4.484046099906">
        <ele>0</ele>
        <time>2019-07-20T12:35:16Z</time>
      </trkpt>
      <trkpt lat="51.214568049132" lon="4.484348854134">
        <ele>0</ele>
        <time>2019-07-20T12:35:23Z</time>
      </trkpt>
      <trkpt lat="51.214628901726" lon="4.484625037739">
        <ele>0</ele>
        <time>2019-07-20T12:35:31Z</time>
      </trkpt>
      <trkpt lat="51.214769214732" lon="4.484843972967">
        <ele>0</ele>
        <time>2019-07-20T12:35:39Z</time>
      </trkpt>
      <trkpt lat="51.214933416153" lon="4.484957044798">
        <ele>0</ele>
        <time>2019-07-20T12:35:46Z</time>
      </trkpt>
      <trkpt lat="51.215130390803" lon="4.484930222718">
        <ele>0.4</ele>
        <time>2019-07-20T12:35:54Z</time>
      </trkpt>
      <trkpt lat="51.215305740151" lon="4.484794603576">
        <ele>0.4</ele>
        <time>2019-07-20T12:36:02Z</time>
      </trkpt>
      <trkpt lat="51.215424092579" lon="4.484569214285">
        <ele>0</ele>
        <time>2019-07-20T12:36:10Z</time>
      </trkpt>
      <trkpt lat="51.215459128921" lon="4.484280960744">
        <ele>0</ele>
        <time>2019-07-20T12:36:18Z</time>
      </trkpt>
      <trkpt lat="51.215449070641" lon="4.483966807132">
        <ele>0</ele>
        <time>2019-07-20T12:36:26Z</time>
      </trkpt>
      <trkpt lat="51.21543071428" lon="4.483653910805">
        <ele>0</ele>
        <time>2019-07-20T12:36:35Z</time>
      </trkpt>
      <trkpt lat="51.215410010987" lon="4.48336850711">
        <ele>0.4</ele>
        <time>2019-07-20T12:36:43Z</time>
      </trkpt>
      <trkpt lat="51.215385368201" lon="4.483045636322">
        <ele>1.8</ele>
        <time>2019-07-20T12:36:51Z</time>
      </trkpt>
      <trkpt lat="51.215253353276" lon="4.482727459398">
        <ele>2.6</ele>
        <time>2019-07-20T12:36:58Z</time>
      </trkpt>
      <trkpt lat="51.215074399711" lon="4.482562419787">
        <ele>1.6</ele>
        <time>2019-07-20T12:37:04Z</time>
      </trkpt>
      <trkpt lat="51.214864852211" lon="4.482540878304">
        <ele>0</ele>
        <time>2019-07-20T12:37:10Z</time>
      </trkpt>
      <trkpt lat="51.214683551714" lon="4.482683957337">
        <ele>0</ele>
        <time>2019-07-20T12:37:16Z</time>
      </trkpt>
      <trkpt lat="51.21457827505" lon="4.482924014953">
        <ele>0</ele>
        <time>2019-07-20T12:37:21Z</time>
      </trkpt>
      <trkpt lat="51.214542065242" lon="4.483226769181">
        <ele>0</ele>
        <time>2019-07-20T12:37:26Z</time>
      </trkpt>
      <trkpt lat="51.214548686943" lon="4.483534971644">
        <ele>0</ele>
        <time>2019-07-20T12:37:31Z</time>
      </trkpt>
      <trkpt lat="51.214564193458" lon="4.483836720044">
        <ele>0</ele>
        <time>2019-07-20T12:37:36Z</time>
      </trkpt>
      <trkpt lat="51.21458330419" lon="4.484125308861">
        <ele>0</ele>
        <time>2019-07-20T12:37:41Z</time>
      </trkpt>
      <trkpt lat="51.214601660551" lon="4.484438205188">
        <ele>0</ele>
        <time>2019-07-20T12:37:47Z</time>
      </trkpt>
      <trkpt lat="51.214695034917" lon="4.48472302215">
        <ele>0</ele>
        <time>2019-07-20T12:37:54Z</time>
      </trkpt>
      <trkpt lat="51.214864684573" lon="4.48489233653">
        <ele>0.2</ele>
        <time>2019-07-20T12:38:00Z</time>
      </trkpt>
      <trkpt lat="51.215060988671" lon="4.484952350934">
        <ele>0.2</ele>
        <time>2019-07-20T12:38:06Z</time>
      </trkpt>
      <trkpt lat="51.215257125131" lon="4.484846152261">
        <ele>1.2</ele>
        <time>2019-07-20T12:38:12Z</time>
      </trkpt>
      <trkpt lat="51.215409005159" lon="4.484615398554">
        <ele>1.8</ele>
        <time>2019-07-20T12:38:18Z</time>
      </trkpt>
      <trkpt lat="51.215466588812" lon="4.484322534968">
        <ele>1.8</ele>
        <time>2019-07-20T12:38:24Z</time>
      </trkpt>
      <trkpt lat="51.215445885519" lon="4.484001256741">
        <ele>3</ele>
        <time>2019-07-20T12:38:30Z</time>
      </trkpt>
      <trkpt lat="51.215428451167" lon="4.483710907725">
        <ele>3.4</ele>
        <time>2019-07-20T12:38:35Z</time>
      </trkpt>
      <trkpt lat="51.215410932996" lon="4.48338862367">
        <ele>3.6</ele>
        <time>2019-07-20T12:38:40Z</time>
      </trkpt>
      <trkpt lat="51.215396180852" lon="4.483012695455">
        <ele>3.8</ele>
        <time>2019-07-20T12:38:47Z</time>
      </trkpt>
      <trkpt lat="51.215304734323" lon="4.482741792447">
        <ele>3.8</ele>
        <time>2019-07-20T12:38:56Z</time>
      </trkpt>
      <trkpt lat="51.215155117408" lon="4.4825730648">
        <ele>2.2</ele>
        <time>2019-07-20T12:39:04Z</time>
      </trkpt>
      <trkpt lat="51.214974403644" lon="4.48251103874">
        <ele>0.4</ele>
        <time>2019-07-20T12:39:12Z</time>
      </trkpt>
      <trkpt lat="51.214784553609" lon="4.482604413106">
        <ele>0.6</ele>
        <time>2019-07-20T12:39:20Z</time>
      </trkpt>
      <trkpt lat="51.21463611016" lon="4.482816475176">
        <ele>1.4</ele>
        <time>2019-07-20T12:39:28Z</time>
      </trkpt>
      <trkpt lat="51.214555057187" lon="4.483082181406">
        <ele>2</ele>
        <time>2019-07-20T12:39:36Z</time>
      </trkpt>
      <trkpt lat="51.21455480573" lon="4.483384600358">
        <ele>1.2</ele>
        <time>2019-07-20T12:39:44Z</time>
      </trkpt>
      <trkpt lat="51.21455564392" lon="4.483673524451">
        <ele>0</ele>
        <time>2019-07-20T12:39:52Z</time>
      </trkpt>
      <trkpt lat="51.214560924517" lon="4.483971920091">
        <ele>0</ele>
        <time>2019-07-20T12:40:00Z</time>
      </trkpt>
      <trkpt lat="51.21457324591" lon="4.484278110898">
        <ele>0</ele>
        <time>2019-07-20T12:40:08Z</time>
      </trkpt>
      <trkpt lat="51.214613646668" lon="4.484556809073">
        <ele>0</ele>
        <time>2019-07-20T12:40:16Z</time>
      </trkpt>
      <trkpt lat="51.214713642735" lon="4.484795441766">
        <ele>0</ele>
        <time>2019-07-20T12:40:24Z</time>
      </trkpt>
      <trkpt lat="51.214876586871" lon="4.484919829162">
        <ele>0</ele>
        <time>2019-07-20T12:40:32Z</time>
      </trkpt>
      <trkpt lat="51.21506526344" lon="4.484930390356">
        <ele>0</ele>
        <time>2019-07-20T12:40:40Z</time>
      </trkpt>
      <trkpt lat="51.215244803738" lon="4.484842296587">
        <ele>0</ele>
        <time>2019-07-20T12:40:47Z</time>
      </trkpt>
      <trkpt lat="51.215395929395" lon="4.484639873702">
        <ele>0</ele>
        <time>2019-07-20T12:40:55Z</time>
      </trkpt>
      <trkpt lat="51.215468181373" lon="4.484375340938">
        <ele>0</ele>
        <time>2019-07-20T12:41:03Z</time>
      </trkpt>
      <trkpt lat="51.215457201084" lon="4.484063031344">
        <ele>1.6</ele>
        <time>2019-07-20T12:41:11Z</time>
      </trkpt>
      <trkpt lat="51.215439179999" lon="4.483748793913">
        <ele>3.2</ele>
        <time>2019-07-20T12:41:19Z</time>
      </trkpt>
      <trkpt lat="51.215418811982" lon="4.483458025802">
        <ele>4.6</ele>
        <time>2019-07-20T12:41:26Z</time>
      </trkpt>
      <trkpt lat="51.215414872489" lon="4.483262643713">
        <ele>5.2</ele>
        <time>2019-07-20T12:41:31Z</time>
      </trkpt>
      <trkpt lat="51.215439599094" lon="4.483214363969">
        <ele>1.8</ele>
        <time>2019-07-20T12:47:25Z</time>
      </trkpt>
      <trkpt lat="51.215438760904" lon="4.483192571029">
        <ele>1.8</ele>
        <time>2019-07-20T12:47:26Z</time>
      </trkpt>
      <trkpt lat="51.215390732617" lon="4.482914375768">
        <ele>1.4</ele>
        <time>2019-07-20T12:47:34Z</time>
      </trkpt>
      <trkpt lat="51.215273805112" lon="4.482687645373">
        <ele>0</ele>
        <time>2019-07-20T12:47:41Z</time>
      </trkpt>
      <trkpt lat="51.215122511817" lon="4.482532999318">
        <ele>0</ele>
        <time>2019-07-20T12:47:48Z</time>
      </trkpt>
      <trkpt lat="51.214938529112" lon="4.482487150325">
        <ele>0</ele>
        <time>2019-07-20T12:47:55Z</time>
      </trkpt>
      <trkpt lat="51.214762425393" lon="4.482556887733">
        <ele>0</ele>
        <time>2019-07-20T12:48:02Z</time>
      </trkpt>
      <trkpt lat="51.214618256713" lon="4.482731817986">
        <ele>0</ele>
        <time>2019-07-20T12:48:09Z</time>
      </trkpt>
      <trkpt lat="51.214529240935" lon="4.483008839781">
        <ele>0</ele>
        <time>2019-07-20T12:48:16Z</time>
      </trkpt>
      <trkpt lat="51.214527648374" lon="4.483303044471">
        <ele>0</ele>
        <time>2019-07-20T12:48:23Z</time>
      </trkpt>
      <trkpt lat="51.214541059414" lon="4.483617952454">
        <ele>0</ele>
        <time>2019-07-20T12:48:30Z</time>
      </trkpt>
      <trkpt lat="51.214557655576" lon="4.483909810212">
        <ele>0</ele>
        <time>2019-07-20T12:48:37Z</time>
      </trkpt>
      <trkpt lat="51.21457156953" lon="4.484224466738">
        <ele>0</ele>
        <time>2019-07-20T12:48:45Z</time>
      </trkpt>
      <trkpt lat="51.214608868985" lon="4.484546080241">
        <ele>1.2</ele>
        <time>2019-07-20T12:48:53Z</time>
      </trkpt>
      <trkpt lat="51.214713810373" lon="4.484795441766">
        <ele>2</ele>
        <time>2019-07-20T12:49:01Z</time>
      </trkpt>
      <trkpt lat="51.214879017622" lon="4.484937263514">
        <ele>2</ele>
        <time>2019-07-20T12:49:09Z</time>
      </trkpt>
      <trkpt lat="51.215069789666" lon="4.484953105305">
        <ele>3.8</ele>
        <time>2019-07-20T12:49:17Z</time>
      </trkpt>
      <trkpt lat="51.215255700208" lon="4.484844894976">
        <ele>4.8</ele>
        <time>2019-07-20T12:49:25Z</time>
      </trkpt>
      <trkpt lat="51.215425266045" lon="4.4845511932">
        <ele>4</ele>
        <time>2019-07-20T12:49:33Z</time>
      </trkpt>
      <trkpt lat="51.215468097554" lon="4.484233854466">
        <ele>3.4</ele>
        <time>2019-07-20T12:49:39Z</time>
      </trkpt>
      <trkpt lat="51.215452591039" lon="4.483913665886">
        <ele>2.6</ele>
        <time>2019-07-20T12:49:45Z</time>
      </trkpt>
      <trkpt lat="51.215433145031" lon="4.483609570554">
        <ele>2.4</ele>
        <time>2019-07-20T12:49:51Z</time>
      </trkpt>
      <trkpt lat="51.215416632688" lon="4.483320395004">
        <ele>2.4</ele>
        <time>2019-07-20T12:49:57Z</time>
      </trkpt>
      <trkpt lat="51.215398360146" lon="4.48303490749">
        <ele>2.8</ele>
        <time>2019-07-20T12:50:03Z</time>
      </trkpt>
      <trkpt lat="51.215297358251" lon="4.482746737768">
        <ele>2.2</ele>
        <time>2019-07-20T12:50:10Z</time>
      </trkpt>
      <trkpt lat="51.215132821554" lon="4.482568538574">
        <ele>1.8</ele>
        <time>2019-07-20T12:50:16Z</time>
      </trkpt>
      <trkpt lat="51.214938193836" lon="4.482517073708">
        <ele>0</ele>
        <time>2019-07-20T12:50:22Z</time>
      </trkpt>
      <trkpt lat="51.21474339848" lon="4.482590080057">
        <ele>0</ele>
        <time>2019-07-20T12:50:28Z</time>
      </trkpt>
      <trkpt lat="51.214585651122" lon="4.482808763828">
        <ele>0</ele>
        <time>2019-07-20T12:50:34Z</time>
      </trkpt>
      <trkpt lat="51.214511722764" lon="4.483069105642">
        <ele>0</ele>
        <time>2019-07-20T12:50:39Z</time>
      </trkpt>
      <trkpt lat="51.214513063868" lon="4.483372530422">
        <ele>0</ele>
        <time>2019-07-20T12:50:44Z</time>
      </trkpt>
      <trkpt lat="51.214543573984" lon="4.483692802821">
        <ele>0</ele>
        <time>2019-07-20T12:50:50Z</time>
      </trkpt>
      <trkpt lat="51.214560086327" lon="4.484005866786">
        <ele>0</ele>
        <time>2019-07-20T12:50:56Z</time>
      </trkpt>
      <trkpt lat="51.21458330419" lon="4.484320355674">
        <ele>0</ele>
        <time>2019-07-20T12:51:02Z</time>
      </trkpt>
      <trkpt lat="51.214639043825" lon="4.484615985287">
        <ele>0</ele>
        <time>2019-07-20T12:51:09Z</time>
      </trkpt>
      <trkpt lat="51.214774914424" lon="4.484827544443">
        <ele>1.2</ele>
        <time>2019-07-20T12:51:15Z</time>
      </trkpt>
      <trkpt lat="51.215046404165" lon="4.484948914355">
        <ele>4.2</ele>
        <time>2019-07-20T12:51:26Z</time>
      </trkpt>
      <trkpt lat="51.21523122506" lon="4.484867107011">
        <ele>5.2</ele>
        <time>2019-07-20T12:51:35Z</time>
      </trkpt>
      <trkpt lat="51.215378075948" lon="4.484669294171">
        <ele>5.6</ele>
        <time>2019-07-20T12:51:44Z</time>
      </trkpt>
      <trkpt lat="51.215458961283" lon="4.484409958185">
        <ele>4.2</ele>
        <time>2019-07-20T12:51:52Z</time>
      </trkpt>
      <trkpt lat="51.215468684287" lon="4.484111646364">
        <ele>3.8</ele>
        <time>2019-07-20T12:52:00Z</time>
      </trkpt>
      <trkpt lat="51.215451585211" lon="4.483796570743">
        <ele>3.2</ele>
        <time>2019-07-20T12:52:08Z</time>
      </trkpt>
      <trkpt lat="51.215435575782" lon="4.483499348569">
        <ele>2.8</ele>
        <time>2019-07-20T12:52:15Z</time>
      </trkpt>
      <trkpt lat="51.21541395048" lon="4.483187541889">
        <ele>2.6</ele>
        <time>2019-07-20T12:52:22Z</time>
      </trkpt>
      <trkpt lat="51.215371370428" lon="4.482900042719">
        <ele>3</ele>
        <time>2019-07-20T12:52:29Z</time>
      </trkpt>
      <trkpt lat="51.215256119303" lon="4.482662499673">
        <ele>2.8</ele>
        <time>2019-07-20T12:52:37Z</time>
      </trkpt>
      <trkpt lat="51.215094516271" lon="4.482535597707">
        <ele>1.6</ele>
        <time>2019-07-20T12:52:44Z</time>
      </trkpt>
      <trkpt lat="51.214892763938" lon="4.482504668496">
        <ele>0</ele>
        <time>2019-07-20T12:52:52Z</time>
      </trkpt>
      <trkpt lat="51.214724036291" lon="4.482602988183">
        <ele>0</ele>
        <time>2019-07-20T12:52:59Z</time>
      </trkpt>
      <trkpt lat="51.21459839161" lon="4.482809266742">
        <ele>0</ele>
        <time>2019-07-20T12:53:06Z</time>
      </trkpt>
      <trkpt lat="51.214529743849" lon="4.483105399269">
        <ele>0</ele>
        <time>2019-07-20T12:53:14Z</time>
      </trkpt>
      <trkpt lat="51.21453133641" lon="4.48342298946">
        <ele>0</ele>
        <time>2019-07-20T12:53:22Z</time>
      </trkpt>
      <trkpt lat="51.2145489384" lon="4.483735382873">
        <ele>0</ele>
        <time>2019-07-20T12:53:30Z</time>
      </trkpt>
      <trkpt lat="51.214577520679" lon="4.484026067165">
        <ele>1</ele>
        <time>2019-07-20T12:53:37Z</time>
      </trkpt>
      <trkpt lat="51.21465371215" lon="4.484581451859">
        <ele>4.2</ele>
        <time>2019-07-20T12:53:50Z</time>
      </trkpt>
      <trkpt lat="51.214774998243" lon="4.484831232479">
        <ele>4</ele>
        <time>2019-07-20T12:53:57Z</time>
      </trkpt>
      <trkpt lat="51.214963674812" lon="4.484952099477">
        <ele>4.8</ele>
        <time>2019-07-20T12:54:04Z</time>
      </trkpt>
      <trkpt lat="51.215163247851" lon="4.484927456691">
        <ele>5.6</ele>
        <time>2019-07-20T12:54:11Z</time>
      </trkpt>
      <trkpt lat="51.215341614683" lon="4.484756717388">
        <ele>5.8</ele>
        <time>2019-07-20T12:54:18Z</time>
      </trkpt>
      <trkpt lat="51.215445131148" lon="4.484517162686">
        <ele>5.6</ele>
        <time>2019-07-20T12:54:24Z</time>
      </trkpt>
      <trkpt lat="51.215479496938" lon="4.484210385146">
        <ele>4.6</ele>
        <time>2019-07-20T12:54:30Z</time>
      </trkpt>
      <trkpt lat="51.215458626007" lon="4.483903439968">
        <ele>4.6</ele>
        <time>2019-07-20T12:54:36Z</time>
      </trkpt>
      <trkpt lat="51.215436330153" lon="4.483580652999">
        <ele>4.6</ele>
        <time>2019-07-20T12:54:42Z</time>
      </trkpt>
      <trkpt lat="51.215422583837" lon="4.483263817179">
        <ele>5.2</ele>
        <time>2019-07-20T12:54:48Z</time>
      </trkpt>
      <trkpt lat="51.215381931622" lon="4.482954692707">
        <ele>4.8</ele>
        <time>2019-07-20T12:54:54Z</time>
      </trkpt>
      <trkpt lat="51.215268524515" lon="4.482696697825">
        <ele>5</ele>
        <time>2019-07-20T12:55:01Z</time>
      </trkpt>
      <trkpt lat="51.215101221791" lon="4.482555043715">
        <ele>4.2</ele>
        <time>2019-07-20T12:55:08Z</time>
      </trkpt>
      <trkpt lat="51.214909108643" lon="4.482523360133">
        <ele>3.4</ele>
        <time>2019-07-20T12:55:15Z</time>
      </trkpt>
      <trkpt lat="51.214728730155" lon="4.482621428363">
        <ele>1</ele>
        <time>2019-07-20T12:55:22Z</time>
      </trkpt>
      <trkpt lat="51.214605180949" lon="4.482839190125">
        <ele>0</ele>
        <time>2019-07-20T12:55:28Z</time>
      </trkpt>
      <trkpt lat="51.21455061478" lon="4.483118558852">
        <ele>0</ele>
        <time>2019-07-20T12:55:34Z</time>
      </trkpt>
      <trkpt lat="51.2145573203" lon="4.483412428266">
        <ele>0</ele>
        <time>2019-07-20T12:55:40Z</time>
      </trkpt>
      <trkpt lat="51.214558493766" lon="4.483597919713">
        <ele>0</ele>
        <time>2019-07-20T12:55:44Z</time>
      </trkpt>
      <trkpt lat="51.214583388009" lon="4.484145844516">
        <ele>1.6</ele>
        <time>2019-07-20T12:55:59Z</time>
      </trkpt>
      <trkpt lat="51.214604510397" lon="4.484452454418">
        <ele>2.2</ele>
        <time>2019-07-20T12:56:07Z</time>
      </trkpt>
      <trkpt lat="51.214690843967" lon="4.484733331887">
        <ele>2</ele>
        <time>2019-07-20T12:56:15Z</time>
      </trkpt>
      <trkpt lat="51.214834425914" lon="4.484902562448">
        <ele>2</ele>
        <time>2019-07-20T12:56:23Z</time>
      </trkpt>
      <trkpt lat="51.215010445814" lon="4.484958050626">
        <ele>2</ele>
        <time>2019-07-20T12:56:31Z</time>
      </trkpt>
      <trkpt lat="51.21520524117" lon="4.484882864983">
        <ele>3</ele>
        <time>2019-07-20T12:56:39Z</time>
      </trkpt>
      <trkpt lat="51.215362737071" lon="4.48469033274">
        <ele>3</ele>
        <time>2019-07-20T12:56:47Z</time>
      </trkpt>
      <trkpt lat="51.21545921274" lon="4.484424458872">
        <ele>2.4</ele>
        <time>2019-07-20T12:56:55Z</time>
      </trkpt>
      <trkpt lat="51.215465247708" lon="4.484137378797">
        <ele>2.8</ele>
        <time>2019-07-20T12:57:02Z</time>
      </trkpt>
      <trkpt lat="51.215452088125" lon="4.483844179935">
        <ele>3</ele>
        <time>2019-07-20T12:57:09Z</time>
      </trkpt>
      <trkpt lat="51.215444041501" lon="4.483551651625">
        <ele>2.6</ele>
        <time>2019-07-20T12:57:16Z</time>
      </trkpt>
      <trkpt lat="51.215429121719" lon="4.483248059207">
        <ele>2.4</ele>
        <time>2019-07-20T12:57:23Z</time>
      </trkpt>
      <trkpt lat="51.21541143591" lon="4.482948322463">
        <ele>2.8</ele>
        <time>2019-07-20T12:57:30Z</time>
      </trkpt>
      <trkpt lat="51.215389726789" lon="4.482778924264">
        <ele>2.4</ele>
        <time>2019-07-20T12:57:35Z</time>
      </trkpt>
      <trkpt lat="51.21543993437" lon="4.483038427888">
        <ele>0.4</ele>
        <time>2019-07-20T12:57:43Z</time>
      </trkpt>
      <trkpt lat="51.215450579383" lon="4.483352832957">
        <ele>0</ele>
        <time>2019-07-20T12:57:51Z</time>
      </trkpt>
      <trkpt lat="51.215472120866" lon="4.483664974913">
        <ele>0</ele>
        <time>2019-07-20T12:57:58Z</time>
      </trkpt>
      <trkpt lat="51.215486453915" lon="4.484000334732">
        <ele>1.6</ele>
        <time>2019-07-20T12:58:05Z</time>
      </trkpt>
      <trkpt lat="51.215492824159" lon="4.484295042336">
        <ele>2.4</ele>
        <time>2019-07-20T12:58:11Z</time>
      </trkpt>
      <trkpt lat="51.2154793293" lon="4.484614644183">
        <ele>3.2</ele>
        <time>2019-07-20T12:58:18Z</time>
      </trkpt>
      <trkpt lat="51.215452171944" lon="4.484903987371">
        <ele>2.8</ele>
        <time>2019-07-20T12:58:26Z</time>
      </trkpt>
      <trkpt lat="51.215429289357" lon="4.485208417979">
        <ele>2.4</ele>
        <time>2019-07-20T12:58:34Z</time>
      </trkpt>
      <trkpt lat="51.215475054531" lon="4.485305312743">
        <ele>1.8</ele>
        <time>2019-07-20T12:58:38Z</time>
      </trkpt>
    </trkseg>
  </trk>
</gpx>